地図

経路データ

SID SEASON NUMBER BASIN SUBBASIN NAME ISO_TIME NATURE LAT LON WMO_WIND WMO_PRES WMO_AGENCY TRACK_TYPE DIST2LAND LANDFALL IFLAG USA_AGENCY USA_ATCF_ID USA_LAT USA_LON USA_RECORD USA_STATUS USA_WIND USA_PRES USA_SSHS USA_R34_NE USA_R34_SE USA_R34_SW USA_R34_NW USA_R50_NE USA_R50_SE USA_R50_SW USA_R50_NW USA_R64_NE USA_R64_SE USA_R64_SW USA_R64_NW USA_POCI USA_ROCI USA_RMW USA_EYE TOKYO_LAT TOKYO_LON TOKYO_GRADE TOKYO_WIND TOKYO_PRES TOKYO_R50_DIR TOKYO_R50_LONG TOKYO_R50_SHORT TOKYO_R30_DIR TOKYO_R30_LONG TOKYO_R30_SHORT TOKYO_LAND CMA_LAT CMA_LON CMA_CAT CMA_WIND CMA_PRES HKO_LAT HKO_LON HKO_CAT HKO_WIND HKO_PRES NEWDELHI_LAT NEWDELHI_LON NEWDELHI_GRADE NEWDELHI_WIND NEWDELHI_PRES NEWDELHI_CI NEWDELHI_DP NEWDELHI_POCI REUNION_LAT REUNION_LON REUNION_TYPE REUNION_WIND REUNION_PRES REUNION_TNUM REUNION_CI REUNION_RMW REUNION_R34_NE REUNION_R34_SE REUNION_R34_SW REUNION_R34_NW REUNION_R50_NE REUNION_R50_SE REUNION_R50_SW REUNION_R50_NW REUNION_R64_NE REUNION_R64_SE REUNION_R64_SW REUNION_R64_NW BOM_LAT BOM_LON BOM_TYPE BOM_WIND BOM_PRES BOM_TNUM BOM_CI BOM_RMW BOM_R34_NE BOM_R34_SE BOM_R34_SW BOM_R34_NW BOM_R50_NE BOM_R50_SE BOM_R50_SW BOM_R50_NW BOM_R64_NE BOM_R64_SE BOM_R64_SW BOM_R64_NW BOM_ROCI BOM_POCI BOM_EYE BOM_POS_METHOD BOM_PRES_METHOD NADI_LAT NADI_LON NADI_CAT NADI_WIND NADI_PRES WELLINGTON_LAT WELLINGTON_LON WELLINGTON_WIND WELLINGTON_PRES DS824_LAT DS824_LON DS824_STAGE DS824_WIND DS824_PRES TD9636_LAT TD9636_LON TD9636_STAGE TD9636_WIND TD9636_PRES TD9635_LAT TD9635_LON TD9635_WIND TD9635_PRES TD9635_ROCI NEUMANN_LAT NEUMANN_LON NEUMANN_CLASS NEUMANN_WIND NEUMANN_PRES MLC_LAT MLC_LON MLC_CLASS MLC_WIND MLC_PRES USA_GUST BOM_GUST BOM_GUST_PER REUNION_GUST REUNION_GUST_PER USA_SEAHGT USA_SEARAD_NE USA_SEARAD_SE USA_SEARAD_SW USA_SEARAD_NW STORM_SPEED STORM_DIR
1929143N08133 1929 31 WP MM NOT_NAMED 1929-05-23 10:00:00 NR 8.00000 132.800 main 684 684 __________O___ -1 8.00000 132.800 7 1 321
1929143N08133 1929 31 WP MM NOT_NAMED 1929-05-23 12:00:00 NR 8.03089 132.795 main 684 684 __________P___ -1 8.03089 132.795 7 1 339
1929143N08133 1929 31 WP MM NOT_NAMED 1929-05-23 15:00:00 NR 8.09065 132.764 main 684 673 __________P___ -1 8.09065 132.764 7 2 323
1929143N08133 1929 31 WP MM NOT_NAMED 1929-05-23 18:00:00 NR 8.18492 132.674 main 674 653 __________P___ -1 8.18492 132.674 7 4 312
1929143N08133 1929 31 WP MM NOT_NAMED 1929-05-23 21:00:00 NR 8.33437 132.489 main 653 643 __________P___ -1 8.33437 132.489 7 5 308
1929143N08133 1929 31 WP MM NOT_NAMED 1929-05-23 22:00:00 NR 8.40000 132.400 main 643 623 __________O___ -1 8.40000 132.400 3 8 306
1929143N08133 1929 31 WP MM NOT_NAMED 1929-05-24 00:00:00 NR 8.55714 132.178 main 625 585 __________P___ -1 8.55714 132.178 3 9 305
1929143N08133 1929 31 WP MM NOT_NAMED 1929-05-24 03:00:00 NR 8.84327 131.755 main 585 540 __________P___ -1 8.84327 131.755 3 11 304
1929143N08133 1929 31 WP MM NOT_NAMED 1929-05-24 06:00:00 NR 9.16479 131.268 main 543 499 __________P___ -1 9.16479 131.268 3 12 304
1929143N08133 1929 31 WP MM NOT_NAMED 1929-05-24 09:00:00 NR 9.49360 130.764 main 500 480 __________P___ -1 9.49360 130.764 3 12 303
1929143N08133 1929 31 WP MM NOT_NAMED 1929-05-24 10:00:00 NR 9.60000 130.600 main 480 453 __________O___ -1 9.60000 130.600 4 11 303
1929143N08133 1929 31 WP MM NOT_NAMED 1929-05-24 12:00:00 NR 9.79158 130.303 main 453 415 __________P___ -1 9.79158 130.303 4 10 303
1929143N08133 1929 31 WP MM NOT_NAMED 1929-05-24 15:00:00 NR 10.0728 129.864 main 418 371 __________P___ -1 10.0728 129.864 4 10 303
1929143N08133 1929 31 WP MM NOT_NAMED 1929-05-24 18:00:00 NR 10.3466 129.437 main 371 344 __________P___ -1 10.3466 129.437 4 10 303
1929143N08133 1929 31 WP MM NOT_NAMED 1929-05-24 21:00:00 NR 10.6129 129.030 main 344 340 __________P___ -1 10.6129 129.030 4 10 304
1929143N08133 1929 31 WP MM NOT_NAMED 1929-05-24 22:00:00 NR 10.7000 128.900 main 340 317 __________O___ -1 10.7000 128.900 4 9 304
1929143N08133 1929 31 WP MM NOT_NAMED 1929-05-25 00:00:00 NR 10.8616 128.660 main 317 273 __________P___ -1 10.8616 128.660 4 8 305
1929143N08133 1929 31 WP MM NOT_NAMED 1929-05-25 03:00:00 NR 11.0976 128.318 main 273 242 __________P___ -1 11.0976 128.318 4 8 306
1929143N08133 1929 31 WP MM NOT_NAMED 1929-05-25 06:00:00 NR 11.3400 127.981 main 242 207 __________P___ -1 11.3400 127.981 4 9 307
1929143N08133 1929 31 WP MM NOT_NAMED 1929-05-25 09:00:00 NR 11.6043 127.626 main 207 201 __________P___ -1 11.6043 127.626 4 9 307
1929143N08133 1929 31 WP MM NOT_NAMED 1929-05-25 10:00:00 NR 11.7000 127.500 main 201 182 __________O___ -1 11.7000 127.500 4 10 308
1929143N08133 1929 31 WP MM NOT_NAMED 1929-05-25 12:00:00 NR 11.9104 127.228 main 182 141 __________P___ -1 11.9104 127.228 4 11 309
1929143N08133 1929 31 WP MM NOT_NAMED 1929-05-25 15:00:00 NR 12.2513 126.795 main 141 97 __________P___ -1 12.2513 126.795 4 11 309
1929143N08133 1929 31 WP MM NOT_NAMED 1929-05-25 18:00:00 NR 12.6114 126.337 main 97 85 __________P___ -1 12.6114 126.337 4 12 309
1929143N08133 1929 31 WP MM NOT_NAMED 1929-05-25 21:00:00 NR 12.9783 125.862 main 93 85 __________P___ -1 12.9783 125.862 4 12 308
1929143N08133 1929 31 WP MM NOT_NAMED 1929-05-25 22:00:00 NR 13.1000 125.700 main 86 79 __________O___ -1 13.1000 125.700 4 12 306
1929143N08133 1929 31 WP MM NOT_NAMED 1929-05-26 00:00:00 NR 13.3227 125.383 main 92 54 __________P___ -1 13.3227 125.383 4 12 305
1929143N08133 1929 31 WP MM NOT_NAMED 1929-05-26 03:00:00 NR 13.6565 124.895 main 54 10 __________P___ -1 13.6565 124.895 4 12 305
1929143N08133 1929 31 WP MM NOT_NAMED 1929-05-26 06:00:00 NR 14.0014 124.392 main 10 0 __________P___ -1 14.0014 124.392 4 12 306
1929143N08133 1929 31 WP MM NOT_NAMED 1929-05-26 09:00:00 NR 14.3698 123.875 main 49 55 __________P___ -1 14.3698 123.875 4 13 307
1929143N08133 1929 31 WP MM NOT_NAMED 1929-05-26 10:00:00 NR 14.5000 123.700 main 67 64 __________O___ -1 14.5000 123.700 4 14 306
1929143N08133 1929 31 WP MM NOT_NAMED 1929-05-26 12:00:00 NR 14.7696 123.314 main 79 74 __________P___ -1 14.7696 123.314 4 14 306
1929143N08133 1929 31 WP MM NOT_NAMED 1929-05-26 15:00:00 NR 15.1990 122.721 main 111 35 __________P___ -1 15.1990 122.721 4 14 308
1929143N08133 1929 31 WP MM NOT_NAMED 1929-05-26 18:00:00 NR 15.6553 122.150 main 39 0 __________P___ -1 15.6553 122.150 4 14 312
1929143N08133 1929 31 WP MM NOT_NAMED 1929-05-26 21:00:00 NR 16.1352 121.646 main 0 0 __________P___ -1 16.1352 121.646 4 14 316
1929143N08133 1929 31 WP MM NOT_NAMED 1929-05-26 22:00:00 NR 16.3000 121.500 main 0 0 __________O___ -1 16.3000 121.500 4 14 318
1929143N08133 1929 31 WP MM NOT_NAMED 1929-05-27 00:00:00 NR 16.6375 121.179 main 0 0 __________P___ -1 16.6375 121.179 4 13 321
1929143N08133 1929 31 WP MM NOT_NAMED 1929-05-27 03:00:00 NR 17.1629 120.772 main 0 0 __________P___ -1 17.1629 120.772 4 12 329
1929143N08133 1929 31 WP MM NOT_NAMED 1929-05-27 06:00:00 NR 17.6980 120.510 main 0 0 __________P___ -1 17.6980 120.510 4 11 344
1929143N08133 1929 31 WP MM NOT_NAMED 1929-05-27 09:00:00 NR 18.2274 120.459 main 10 10 __________P___ -1 18.2274 120.459 4 11 359
1929143N08133 1929 31 WP MM NOT_NAMED 1929-05-27 10:00:00 NR 18.4000 120.500 main 10 10 __________O___ -1 18.4000 120.500 4 11 23
1929143N08133 1929 31 WP MM NOT_NAMED 1929-05-27 12:00:00 NR 18.7441 120.683 main 15 24 __________P___ -1 18.7441 120.683 4 13 37
1929143N08133 1929 31 WP MM NOT_NAMED 1929-05-27 15:00:00 NR 19.2481 121.166 main 74 84 __________P___ -1 19.2481 121.166 4 15 48
1929143N08133 1929 31 WP MM NOT_NAMED 1929-05-27 18:00:00 NR 19.7258 121.820 main 140 154 __________P___ -1 19.7258 121.820 4 16 55
1929143N08133 1929 31 WP MM NOT_NAMED 1929-05-27 21:00:00 NR 20.1644 122.554 main 203 203 __________P___ -1 20.1644 122.554 4 16 58
1929143N08133 1929 31 WP MM NOT_NAMED 1929-05-27 22:00:00 NR 20.3000 122.800 main 218 218 __________O___ -1 20.3000 122.800 4 15 58
1929143N08133 1929 31 WP MM NOT_NAMED 1929-05-28 00:00:00 NR 20.5588 123.236 main 263 267 __________P___ -1 20.5588 123.236 4 15 60
1929143N08133 1929 31 WP MM NOT_NAMED 1929-05-28 03:00:00 NR 20.9094 123.914 main 325 331 __________P___ -1 20.9094 123.914 4 14 63
1929143N08133 1929 31 WP MM NOT_NAMED 1929-05-28 06:00:00 NR 21.2230 124.603 main 390 390 __________P___ -1 21.2230 124.603 4 14 65
1929143N08133 1929 31 WP MM NOT_NAMED 1929-05-28 09:00:00 NR 21.5091 125.280 main 439 439 __________P___ -1 21.5091 125.280 4 14 66
1929143N08133 1929 31 WP MM NOT_NAMED 1929-05-28 10:00:00 NR 21.6000 125.500 main 453 453 __________O___ -1 21.6000 125.500 4 13 66
1929143N08133 1929 31 WP MM NOT_NAMED 1929-05-28 12:00:00 NR 21.7771 125.927 main 484 494 __________P___ -1 21.7771 125.927 4 13 66
1929143N08133 1929 31 WP MM NOT_NAMED 1929-05-28 15:00:00 NR 22.0328 126.540 main 537 545 __________P___ -1 22.0328 126.540 4 12 66
1929143N08133 1929 31 WP MM NOT_NAMED 1929-05-28 18:00:00 NR 22.2796 127.130 main 584 593 __________P___ -1 22.2796 127.130 4 12 66
1929143N08133 1929 31 WP MM NOT_NAMED 1929-05-28 21:00:00 NR 22.5205 127.708 main 631 631 __________P___ -1 22.5205 127.708 4 12 66
1929143N08133 1929 31 WP MM NOT_NAMED 1929-05-28 22:00:00 NR 22.6000 127.900 main 647 __________O___ -1 22.6000 127.900 4 12 66

デジタル台風データ・検索

IBTrACS Databaseについて

本データベースは、米国NOAAが公開する1842年以降の世界の熱帯低気圧のベストトラックデータアーカイブInternational Best Track Archive for Climate Stewardship (IBTrACS)を、ウェブで閲覧しやすい形式に変換したものです。

最終更新日:2021-12-01